Hauptseite
METAR-TAF:

METAR-TAF

Flughäfen :

Flughafen Catamayo

Loja, Ecuador

Breite: 03-59-45S, Länge: 079-22-19W, Höhe: 1236 m

Beobachtung

Neuester Wetterbericht von vor 1 Stunde und 14 Minuten, um 19:00 UTC
Wind 13 kt aus Südost, variierte zwischen Ost und Süd
Temperatur 29°C
Luftfeuchtigkeit 37%
Luftdruck 1017 hPa
Sichtweite 10 km oder mehr
Durchbrochene Bewölkung in der Höhe von 4000 ft

METAR: SECA 121900Z 13013KT 090V170 9999 BKN040 29/13 Q1017 RMK A3004

Zeit: 15:14 (20:14 UTC)


TAF: fehlend

Wetterbeobachtungen und Prognosen von mehr als 4000 Flughäfen (METAR und TAF Bericht).

Die verfügbaren Stationen werden durch gelbe und rote Markierungen auf der Karte dargestellt.

Führen Sie die Maus auf sie, um den Namen der Station zu sehen.

Darauf klicken, um die Beobachtung von Wetterbeobachtungen und Prognosen zu sehen.

Um die Karte zu ändern : klicken Sie auf den grünen Tasten mit einem schwarzen Kreuz Zum Vergrößern, auf den grünen Button mit einem Gedankenstrich zu verkleinern, oder auf die grünen Pfeile für benachbarte Karten.


METAR-TAF: